Accueil
METAR-TAF:

METAR-TAF

Aéroports :

Tarawa, Kiribati

Aéroport international de Bonriki

latitude: 01-21N, longitude: 172-55E, altitude: 2 m

Observation

Le bulletin a été fait il y a 48 minutes, à 13:00 UTC
Vent 11 kt de est
Température 28°C
Humidité 79%
Pression 1011 hPa
Visibilité 10 km ou plus
Nuages épars à une hauteur de 1900 ft
Nuages fragmentés à une hauteur de 30000 ft

METAR: NGTA 211300Z 09011KT 9999 SCT019 BKN300 28/24 Q1011

Heure: 03:48 (13:48 UTC)

Prévision

Le bulletin a été fait il y a 2 heures et 16 minutes, à 11:32 UTC
Prévision valable du 21 à 12 UTC au 22 à 12 UTC
Vent 8 kt de est
Visibilité 10 km ou plus
Nuages épars à une hauteur de 1800 ft
Nuages épars à une hauteur de 10000 ft

TAF: NGTA 211132Z 2112/2212 10008KT 9999 SCT018 SCT100

Observations et prévisions météorologiques de plus de 4000 aéroports (messages METAR et TAF).

Les stations disponibles sont représentées par des disques jaunes et rouges sur la carte.

Passer la souris dessus pour voir le nom de la station.

Cliquer dessus pour voir les observations et prévisions météorologiques.

Pour changer de carte: cliquez sur les boutons verts avec une croix noire pour zoomer, sur le bouton vert avec un tiret pour effectuer un zoom arrière, ou sur les flèches vertes pour les cartes adjacentes.


METAR-TAF: